Time;durP1;ratioP1;P1;durP2;ratioP2;P2;SDS_P1;SDS_P2;PMS_P1;PMS_P2;Temp;Humidity;BMP_temperature;BMP_pressure;BME280_temperature;BME280_humidity;BME280_pressure;Samples;Min_cycle;Max_cycle;Signal;HPM_P1;HPM_P2
2022/07/06 00:04:52;;;;;;;;;;;;;;;;;;10459824;28;19939;-65
2022/07/06 00:09:54;;;;;;;;;;;;;;;;;;10458387;28;19925;-65
2022/07/06 00:14:56;;;;;;;;;;;;;;;;;;10459367;28;19947;-65
2022/07/06 00:19:59;;;;;;;;;;;;;;;;;;10459775;28;19982;-65
2022/07/06 00:25:01;;;;;;;;;;;;;;;;;;10458774;28;20346;-65
2022/07/06 00:30:03;;;;;;;;;;;;;;;;;;10458890;28;19932;-65
2022/07/06 00:35:05;;;;;;;;;;;;;;;;;;10458659;28;19929;-65
2022/07/06 00:40:07;;;;;;;;;;;;;;;;;;10458968;28;19971;-65
2022/07/06 00:45:10;;;;;;;;;;;;;;;;;;10458357;28;20430;-65
2022/07/06 00:50:15;;;;;;;;;;;;;;;;;;10458533;28;19934;-65
2022/07/06 00:55:18;;;;;;;;;;;;;;;;;;10458290;28;19964;-65
2022/07/06 01:00:20;;;;;;;;;;;;;;;;;;10457642;28;19928;-64
2022/07/06 01:05:22;;;;;;;;;;;;;;;;;;10457881;28;19925;-65
2022/07/06 01:10:24;;;;;;;;;;;;;;;;;;10457836;28;19978;-65
2022/07/06 01:15:26;;;;;;;;;;;;;;;;;;10457233;28;19925;-65
2022/07/06 01:20:29;;;;;;;;;;;;;;;;;;10456418;28;20281;-65
2022/07/06 01:25:32;;;;;;;;;;;;;;;;;;10457572;28;19925;-65
2022/07/06 01:30:36;;;;;;;;;;;;;;;;;;10456806;28;19925;-65
2022/07/06 01:35:38;;;;;;;;;;;;;;;;;;10439618;28;19928;-65
2022/07/06 01:40:40;;;;;;;;;;;;;;;;;;10456483;28;20364;-65
2022/07/06 01:45:42;;;;;;;;;;;;;;;;;;10457091;28;19932;-64
2022/07/06 01:50:44;;;;;;;;;;;;;;;;;;10456143;28;20434;-65
2022/07/06 01:55:46;;;;;;;;;;;;;;;;;;10456969;28;19932;-64
2022/07/06 02:00:48;;;;;;;;;;;;;;;;;;10456496;28;19933;-65
2022/07/06 02:05:51;;;;;;;;;;;;;;;;;;10456774;28;19925;-64
2022/07/06 02:10:53;;;;;;;;;;;;;;;;;;10456512;28;19932;-64
2022/07/06 02:15:55;;;;;;;;;;;;;;;;;;10455924;28;20300;-64
2022/07/06 02:20:57;;;;;;;;;;;;;;;;;;10455355;28;19925;-64
2022/07/06 02:25:59;;;;;;;;;;;;;;;;;;10456314;28;19929;-64
2022/07/06 02:31:01;;;;;;;;;;;;;;;;;;10457330;28;19931;-64
2022/07/06 02:36:03;;;;;;;;;;;;;;;;;;10463267;28;20276;-64
2022/07/06 02:41:05;;;;;;;;;;;;;;;;;;10445106;28;20302;-64
2022/07/06 02:46:08;;;;;;;;;;;;;;;;;;10463398;28;19936;-64
2022/07/06 02:51:10;;;;;;;;;;;;;;;;;;10462519;28;19925;-64
2022/07/06 02:56:12;;;;;;;;;;;;;;;;;;10462368;28;20402;-64
2022/07/06 03:01:14;;;;;;;;;;;;;;;;;;10462881;28;19924;-64
2022/07/06 03:06:16;;;;;;;;;;;;;;;;;;10461953;28;20350;-64
2022/07/06 03:11:18;;;;;;;;;;;;;;;;;;10443986;28;20404;-64
2022/07/06 03:16:20;;;;;;;;;;;;;;;;;;10461534;28;20360;-65
2022/07/06 03:21:22;;;;;;;;;;;;;;;;;;10462086;28;19925;-64
2022/07/06 03:26:24;;;;;;;;;;;;;;;;;;10461770;28;19931;-64
2022/07/06 03:31:26;;;;;;;;;;;;;;;;;;10460819;28;19934;-64
2022/07/06 03:36:29;;;;;;;;;;;;;;;;;;10461101;28;19955;-64
2022/07/06 03:41:34;;;;;;;;;;;;;;;;;;10461129;28;20007;-64
2022/07/06 03:46:36;;;;;;;;;;;;;;;;;;10460416;28;20291;-64
2022/07/06 03:51:39;;;;;;;;;;;;;;;;;;10460918;28;19936;-64
2022/07/06 03:56:41;;;;;;;;;;;;;;;;;;10460618;28;19932;-64
2022/07/06 04:01:43;;;;;;;;;;;;;;;;;;10460570;28;19964;-64
2022/07/06 04:06:45;;;;;;;;;;;;;;;;;;10460200;28;19932;-64
2022/07/06 04:11:48;;;;;;;;;;;;;;;;;;10459601;28;20364;-64
2022/07/06 04:16:50;;;;;;;;;;;;;;;;;;10459792;28;19991;-64
2022/07/06 04:21:52;;;;;;;;;;;;;;;;;;10459078;28;19978;-64
2022/07/06 04:26:54;;;;;;;;;;;;;;;;;;10458677;28;20384;-64
2022/07/06 04:31:56;;;;;;;;;;;;;;;;;;10458661;28;19935;-64
2022/07/06 04:36:58;;;;;;;;;;;;;;;;;;10458960;28;19956;-63
2022/07/06 04:47:05;;;;;;;;;;;;;;;;;;10415174;28;19925;-64
2022/07/06 04:52:07;;;;;;;;;;;;;;;;;;10416715;28;19951;-64
2022/07/06 04:57:09;;;;;;;;;;;;;;;;;;10416421;28;19925;-64
2022/07/06 05:02:13;;;;;;;;;;;;;;;;;;10416388;28;20376;-64
2022/07/06 05:07:16;;;;;;;;;;;;;;;;;;10415881;28;20024;-64
2022/07/06 05:12:18;;;;;;;;;;;;;;;;;;10416854;28;19925;-64
2022/07/06 05:17:20;;;;;;;;;;;;;;;;;;10416433;28;20020;-64
2022/07/06 05:22:26;;;;;;;;;;;;;;;;;;10416474;28;20322;-64
2022/07/06 05:27:28;;;;;;;;;;;;;;;;;;10415275;28;20394;-64
2022/07/06 05:32:30;;;;;;;;;;;;;;;;;;10415980;28;19925;-64
2022/07/06 05:37:32;;;;;;;;;;;;;;;;;;10415961;28;19936;-64
2022/07/06 05:42:35;;;;;;;;;;;;;;;;;;10415245;28;19932;-64
2022/07/06 05:52:57;;;;;;;;;;;;;;;;;;10415635;28;19932;-72
2022/07/06 05:58:00;;;;;;;;;;;;;;;;;;10414764;28;20023;-72
2022/07/06 06:03:02;;;;;;;;;;;;;;;;;;10415810;28;19926;-72
2022/07/06 06:08:04;;;;;;;;;;;;;;;;;;10418967;28;19926;-72
2022/07/06 06:13:06;;;;;;;;;;;;;;;;;;10422502;28;19925;-72
2022/07/06 06:18:08;;;;;;;;;;;;;;;;;;10421133;28;20288;-71
2022/07/06 06:23:10;;;;;;;;;;;;;;;;;;10422488;28;19964;-71
2022/07/06 06:28:12;;;;;;;;;;;;;;;;;;10422773;28;19966;-72
2022/07/06 06:33:15;;;;;;;;;;;;;;;;;;10421672;28;19992;-71
2022/07/06 06:38:17;;;;;;;;;;;;;;;;;;10422309;28;19933;-71
2022/07/06 06:43:19;;;;;;;;;;;;;;;;;;10425753;28;19933;-71
2022/07/06 06:48:21;;;;;;;;;;;;;;;;;;10421700;28;19925;-71
2022/07/06 06:53:23;;;;;;;;;;;;;;;;;;10421319;28;19936;-71
2022/07/06 06:58:25;;;;;;;;;;;;;;;;;;10420767;28;19932;-72
2022/07/06 07:03:28;;;;;;;;;;;;;;;;;;10421078;28;19925;-71
2022/07/06 07:08:30;;;;;;;;;;;;;;;;;;10418339;28;19940;-72
2022/07/06 07:13:32;;;;;;;;;;;;;;;;;;10421239;28;19925;-72
2022/07/06 07:18:34;;;;;;;;;;;;;;;;;;10415199;28;19925;-72
2022/07/06 07:23:36;;;;;;;;;;;;;;;;;;10419738;28;19968;-72
2022/07/06 07:28:38;;;;;;;;;;;;;;;;;;10419751;28;19928;-72
2022/07/06 07:33:40;;;;;;;;;;;;;;;;;;10420163;28;19931;-72
2022/07/06 07:38:42;;;;;;;;;;;;;;;;;;10419904;28;19929;-72
2022/07/06 07:43:44;;;;;;;;;;;;;;;;;;10418925;28;19925;-72
2022/07/06 07:48:47;;;;;;;;;;;;;;;;;;10419533;28;19932;-72
2022/07/06 07:53:49;;;;;;;;;;;;;;;;;;10418861;28;19925;-72
2022/07/06 07:58:51;;;;;;;;;;;;;;;;;;10419414;28;19929;-72
2022/07/06 08:03:53;;;;;;;;;;;;;;;;;;10418389;28;19952;-72
2022/07/06 08:08:55;;;;;;;;;;;;;;;;;;10419078;28;19925;-72
2022/07/06 08:13:57;;;;;;;;;;;;;;;;;;10417930;28;20394;-72
2022/07/06 08:18:59;;;;;;;;;;;;;;;;;;10417271;28;19925;-72
2022/07/06 08:24:02;;;;;;;;;;;;;;;;;;10417650;28;19932;-72
2022/07/06 08:29:04;;;;;;;;;;;;;;;;;;10416744;28;19926;-72
2022/07/06 08:34:06;;;;;;;;;;;;;;;;;;10416460;28;19929;-72
2022/07/06 08:39:09;;;;;;;;;;;;;;;;;;10417808;28;19925;-72
2022/07/06 08:44:11;;;;;;;;;;;;;;;;;;10417016;28;19935;-72
2022/07/06 08:49:13;;;;;;;;;;;;;;;;;;10417642;28;19929;-72
2022/07/06 08:54:15;;;;;;;;;;;;;;;;;;10417483;28;19932;-72
2022/07/06 08:59:17;;;;;;;;;;;;;;;;;;10417162;28;19925;-72
2022/07/06 09:04:19;;;;;;;;;;;;;;;;;;10416631;28;20276;-72
2022/07/06 09:09:21;;;;;;;;;;;;;;;;;;10416938;28;20008;-72
2022/07/06 09:14:23;;;;;;;;;;;;;;;;;;10416742;28;20008;-72
2022/07/06 09:19:25;;;;;;;;;;;;;;;;;;10416512;28;19932;-72
2022/07/06 09:24:27;;;;;;;;;;;;;;;;;;10416375;28;20380;-73
2022/07/06 09:29:30;;;;;;;;;;;;;;;;;;10415681;28;19932;-73
2022/07/06 09:34:32;;;;;;;;;;;;;;;;;;10415602;28;19925;-72
2022/07/06 09:39:34;;;;;;;;;;;;;;;;;;10414585;28;19943;-72
2022/07/06 09:44:39;;;;;;;;;;;;;;;;;;10415438;28;19930;-73
2022/07/06 09:49:41;;;;;;;;;;;;;;;;;;10415894;28;19940;-72
2022/07/06 09:54:43;;;;;;;;;;;;;;;;;;10415735;28;19929;-72
2022/07/06 09:59:45;;;;;;;;;;;;;;;;;;10415637;28;19925;-72
2022/07/06 10:04:47;;;;;;;;;;;;;;;;;;10415574;28;19925;-73
2022/07/06 10:09:50;;;;;;;;;;;;;;;;;;10414833;28;20319;-72
2022/07/06 10:14:52;;;;;;;;;;;;;;;;;;10415419;28;19925;-72
2022/07/06 10:19:55;;;;;;;;;;;;;;;;;;10414171;28;19936;-72
2022/07/06 10:24:59;;;;;;;;;;;;;;;;;;10415252;28;19926;-73
2022/07/06 10:30:01;;;;;;;;;;;;;;;;;;10415175;28;19932;-72
2022/07/06 10:35:03;;;;;;;;;;;;;;;;;;10414432;28;19947;-72
2022/07/06 10:45:26;;;;;;;;;;;;;;;;;;10414328;28;19925;-73
2022/07/06 10:50:28;;;;;;;;;;;;;;;;;;10414785;28;19932;-72
2022/07/06 10:55:30;;;;;;;;;;;;;;;;;;10421631;28;19926;-72
2022/07/06 11:00:32;;;;;;;;;;;;;;;;;;10421764;28;19925;-73
2022/07/06 11:05:34;;;;;;;;;;;;;;;;;;10421718;28;19929;-72
2022/07/06 11:10:56;;;;;;;;;;;;;;;;;;10421515;28;19987;-73
2022/07/06 11:15:58;;;;;;;;;;;;;;;;;;10419395;28;19925;-72
2022/07/06 11:21:00;;;;;;;;;;;;;;;;;;10420308;28;20280;-72
2022/07/06 11:26:02;;;;;;;;;;;;;;;;;;10420243;28;20402;-72
2022/07/06 11:31:04;;;;;;;;;;;;;;;;;;10420567;28;19936;-71
2022/07/06 11:36:06;;;;;;;;;;;;;;;;;;10420490;28;19979;-72
2022/07/06 11:41:09;;;;;;;;;;;;;;;;;;10434555;28;20377;-72
2022/07/06 11:46:11;;;;;;;;;;;;;;;;;;10418857;28;19948;-72
2022/07/06 11:51:13;;;;;;;;;;;;;;;;;;10419741;28;19929;-72
2022/07/06 11:56:15;;;;;;;;;;;;;;;;;;10419677;28;19929;-73
2022/07/06 12:01:17;;;;;;;;;;;;;;;;;;10419471;28;19925;-73
2022/07/06 12:06:19;;;;;;;;;;;;;;;;;;10418969;28;19932;-72
2022/07/06 12:11:22;;;;;;;;;;;;;;;;;;10418485;28;19931;-72
2022/07/06 12:16:24;;;;;;;;;;;;;;;;;;10419014;28;19932;-72
2022/07/06 12:21:26;;;;;;;;;;;;;;;;;;10417886;28;19929;-72
2022/07/06 12:26:29;;;;;;;;;;;;;;;;;;10418274;28;19925;-72
2022/07/06 12:31:31;;;;;;;;;;;;;;;;;;10416770;28;19925;-74
2022/07/06 12:36:34;;;;;;;;;;;;;;;;;;10416380;28;19925;-73
2022/07/06 12:41:36;;;;;;;;;;;;;;;;;;10417903;28;19932;-72
2022/07/06 12:46:38;;;;;;;;;;;;;;;;;;10416042;28;19933;-72
2022/07/06 12:51:40;;;;;;;;;;;;;;;;;;10417102;28;19925;-73
2022/07/06 12:56:42;;;;;;;;;;;;;;;;;;10418127;28;19925;-73
2022/07/06 13:01:44;;;;;;;;;;;;;;;;;;10416549;28;19925;-72
2022/07/06 13:06:46;;;;;;;;;;;;;;;;;;10417122;28;19971;-73
2022/07/06 13:11:48;;;;;;;;;;;;;;;;;;10416323;28;19925;-73
2022/07/06 13:16:50;;;;;;;;;;;;;;;;;;10415837;28;20383;-73
2022/07/06 13:21:53;;;;;;;;;;;;;;;;;;10416481;28;19932;-73
2022/07/06 13:26:55;;;;;;;;;;;;;;;;;;10415845;28;20296;-73
2022/07/06 13:31:57;;;;;;;;;;;;;;;;;;10415691;28;20284;-73
2022/07/06 13:36:59;;;;;;;;;;;;;;;;;;10416251;28;19925;-72
2022/07/06 13:42:01;;;;;;;;;;;;;;;;;;10415411;28;20272;-73
2022/07/06 13:47:03;;;;;;;;;;;;;;;;;;10415999;28;19932;-73
2022/07/06 13:52:05;;;;;;;;;;;;;;;;;;10415911;28;19929;-73
2022/07/06 13:57:07;;;;;;;;;;;;;;;;;;10415802;28;19932;-73
2022/07/06 14:02:10;;;;;;;;;;;;;;;;;;10415657;28;19925;-74
2022/07/06 14:07:13;;;;;;;;;;;;;;;;;;10415718;28;19929;-73
2022/07/06 14:12:23;;;;;;;;;;;;;;;;;;10415591;28;19925;-73
2022/07/06 14:17:25;;;;;;;;;;;;;;;;;;10414927;28;19929;-74
2022/07/06 14:22:27;;;;;;;;;;;;;;;;;;10413460;28;20308;-73
2022/07/06 14:27:29;;;;;;;;;;;;;;;;;;10417312;28;19932;-72
2022/07/06 14:32:31;;;;;;;;;;;;;;;;;;10422943;28;19932;-73
2022/07/06 14:37:33;;;;;;;;;;;;;;;;;;10422162;28;20432;-73
2022/07/06 14:42:36;;;;;;;;;;;;;;;;;;10421695;28;19931;-73
2022/07/06 14:47:38;;;;;;;;;;;;;;;;;;10421776;28;20284;-73
2022/07/06 14:52:40;;;;;;;;;;;;;;;;;;10422248;28;19925;-73
2022/07/06 14:57:42;;;;;;;;;;;;;;;;;;10421446;28;19925;-74
2022/07/06 15:02:44;;;;;;;;;;;;;;;;;;10421161;28;20376;-73
2022/07/06 15:07:46;;;;;;;;;;;;;;;;;;10421070;28;20396;-72
2022/07/06 15:12:55;;;;;;;;;;;;;;;;;;10421598;28;19960;-73
2022/07/06 15:17:57;;;;;;;;;;;;;;;;;;10421351;28;19925;-73
2022/07/06 15:23:00;;;;;;;;;;;;;;;;;;10421043;28;20020;-73
2022/07/06 15:28:02;;;;;;;;;;;;;;;;;;10420319;28;20288;-73
2022/07/06 15:33:04;;;;;;;;;;;;;;;;;;10420047;28;20281;-73
2022/07/06 15:38:06;;;;;;;;;;;;;;;;;;10419445;28;20300;-73
2022/07/06 15:43:08;;;;;;;;;;;;;;;;;;10419769;28;19940;-73
2022/07/06 15:48:10;;;;;;;;;;;;;;;;;;10419538;28;19932;-72
2022/07/06 15:53:12;;;;;;;;;;;;;;;;;;10419254;28;19925;-73
2022/07/06 15:58:14;;;;;;;;;;;;;;;;;;10418041;28;19925;-73
2022/07/06 16:03:17;;;;;;;;;;;;;;;;;;10419477;28;19932;-73
2022/07/06 16:08:19;;;;;;;;;;;;;;;;;;10419183;28;19926;-73
2022/07/06 16:13:27;;;;;;;;;;;;;;;;;;10419261;28;19925;-73
2022/07/06 16:18:30;;;;;;;;;;;;;;;;;;10418962;28;19925;-73
2022/07/06 16:23:32;;;;;;;;;;;;;;;;;;10418088;28;20380;-73
2022/07/06 16:28:34;;;;;;;;;;;;;;;;;;10418556;28;19925;-73
2022/07/06 16:33:37;;;;;;;;;;;;;;;;;;10418306;28;19936;-73
2022/07/06 16:38:39;;;;;;;;;;;;;;;;;;10418636;28;19949;-73
2022/07/06 16:43:41;;;;;;;;;;;;;;;;;;10417501;28;19926;-72
2022/07/06 16:48:43;;;;;;;;;;;;;;;;;;10415347;28;19931;-73
2022/07/06 16:53:45;;;;;;;;;;;;;;;;;;10417608;28;19932;-73
2022/07/06 16:58:47;;;;;;;;;;;;;;;;;;10446559;22;19925;-60
2022/07/06 17:03:49;;;;;;;;;;;;;;;;;;10458485;28;19925;-60
2022/07/06 17:08:52;;;;;;;;;;;;;;;;;;10439923;28;19975;-60
2022/07/06 17:13:54;;;;;;;;;;;;;;;;;;10457572;28;20283;-60
2022/07/06 17:18:56;;;;;;;;;;;;;;;;;;10458031;28;19931;-60
2022/07/06 17:23:58;;;;;;;;;;;;;;;;;;10481002;28;20117;-60
2022/07/06 17:29:00;;;;;;;;;;;;;;;;;;10481225;28;19925;-60
2022/07/06 17:34:02;;;;;;;;;;;;;;;;;;10496614;28;20402;-60
2022/07/06 17:39:04;;;;;;;;;;;;;;;;;;10498315;28;20372;-60
2022/07/06 17:44:06;;;;;;;;;;;;;;;;;;10497197;28;19928;-60
2022/07/06 17:49:09;;;;;;;;;;;;;;;;;;10498650;28;19934;-59
2022/07/06 17:54:11;;;;;;;;;;;;;;;;;;10498581;28;19924;-60
2022/07/06 17:59:13;;;;;;;;;;;;;;;;;;10478635;28;19939;-60
2022/07/06 18:04:15;;;;;;;;;;;;;;;;;;10505358;28;20287;-60
2022/07/06 18:09:17;;;;;;;;;;;;;;;;;;10506724;28;19924;-60
2022/07/06 18:14:19;;;;;;;;;;;;;;;;;;10504243;28;19936;-59
2022/07/06 18:19:21;;;;;;;;;;;;;;;;;;10505685;28;19924;-60
2022/07/06 18:24:23;;;;;;;;;;;;;;;;;;10506749;28;19924;-59
2022/07/06 18:29:26;;;;;;;;;;;;;;;;;;10486528;28;19924;-59
2022/07/06 18:34:28;;;;;;;;;;;;;;;;;;10505079;28;20359;-59
2022/07/06 18:39:30;;;;;;;;;;;;;;;;;;10503830;28;19931;-60
2022/07/06 18:44:32;;;;;;;;;;;;;;;;;;10499576;28;19925;-59
2022/07/06 18:49:34;;;;;;;;;;;;;;;;;;10493364;28;19924;-59
2022/07/06 18:54:36;;;;;;;;;;;;;;;;;;10504373;28;20287;-59
2022/07/06 18:59:38;;;;;;;;;;;;;;;;;;10504057;28;20275;-59
2022/07/06 19:04:44;;;;;;;;;;;;;;;;;;10502231;28;20302;-60
2022/07/06 19:09:46;;;;;;;;;;;;;;;;;;10503766;28;19924;-59
2022/07/06 19:14:48;;;;;;;;;;;;;;;;;;10502796;28;20407;-59
2022/07/06 19:19:50;;;;;;;;;;;;;;;;;;10501761;28;19924;-60
2022/07/06 19:24:52;;;;;;;;;;;;;;;;;;10504364;28;19932;-59
2022/07/06 19:29:55;;;;;;;;;;;;;;;;;;10502198;28;19925;-59
2022/07/06 19:34:57;;;;;;;;;;;;;;;;;;10503441;28;19925;-60
2022/07/06 19:39:59;;;;;;;;;;;;;;;;;;10502595;28;20291;-59
2022/07/06 19:45:01;;;;;;;;;;;;;;;;;;10500654;28;20367;-59
2022/07/06 19:50:03;;;;;;;;;;;;;;;;;;10502870;28;19939;-60
2022/07/06 19:55:05;;;;;;;;;;;;;;;;;;10502062;28;19924;-59
2022/07/06 20:00:07;;;;;;;;;;;;;;;;;;10500178;28;19928;-60
2022/07/06 20:05:09;;;;;;;;;;;;;;;;;;10501585;28;20406;-59
2022/07/06 20:10:12;;;;;;;;;;;;;;;;;;10487034;28;19932;-59
2022/07/06 20:15:14;;;;;;;;;;;;;;;;;;10470577;28;19939;-59
2022/07/06 20:20:16;;;;;;;;;;;;;;;;;;10460077;28;19931;-59
2022/07/06 20:25:18;;;;;;;;;;;;;;;;;;10442856;28;19925;-59
2022/07/06 20:30:20;;;;;;;;;;;;;;;;;;10461990;28;19924;-60
2022/07/06 20:35:24;;;;;;;;;;;;;;;;;;10482114;28;20581;-59
2022/07/06 20:40:26;;;;;;;;;;;;;;;;;;10465511;28;20401;-59
2022/07/06 20:45:28;;;;;;;;;;;;;;;;;;10458701;28;19925;-59
2022/07/06 20:50:31;;;;;;;;;;;;;;;;;;10458515;28;19925;-60
2022/07/06 20:55:33;;;;;;;;;;;;;;;;;;10485783;28;19931;-59
2022/07/06 21:00:35;;;;;;;;;;;;;;;;;;10499350;28;19925;-60
2022/07/06 21:05:37;;;;;;;;;;;;;;;;;;10498591;28;20260;-59
2022/07/06 21:10:39;;;;;;;;;;;;;;;;;;10499083;28;20375;-59
2022/07/06 21:15:41;;;;;;;;;;;;;;;;;;10465281;28;19925;-59
2022/07/06 21:20:43;;;;;;;;;;;;;;;;;;10457945;28;19924;-60
2022/07/06 21:25:45;;;;;;;;;;;;;;;;;;10457216;28;20261;-60
2022/07/06 21:30:47;;;;;;;;;;;;;;;;;;10457045;28;19925;-59
2022/07/06 21:35:49;;;;;;;;;;;;;;;;;;10467541;28;19936;-60
2022/07/06 21:40:51;;;;;;;;;;;;;;;;;;10498874;28;19931;-60
2022/07/06 21:45:54;;;;;;;;;;;;;;;;;;10498179;28;20265;-60
2022/07/06 21:50:58;;;;;;;;;;;;;;;;;;10497792;28;20383;-60
2022/07/06 21:56:00;;;;;;;;;;;;;;;;;;10497993;28;19950;-60
2022/07/06 22:01:02;;;;;;;;;;;;;;;;;;10492784;28;19924;-59
2022/07/06 22:06:04;;;;;;;;;;;;;;;;;;10456913;28;19931;-59
2022/07/06 22:11:07;;;;;;;;;;;;;;;;;;10456268;28;19929;-59
2022/07/06 22:16:12;;;;;;;;;;;;;;;;;;10456774;28;19940;-59
2022/07/06 22:21:14;;;;;;;;;;;;;;;;;;10456510;28;19931;-60
2022/07/06 22:26:19;;;;;;;;;;;;;;;;;;10456547;28;19931;-59
2022/07/06 22:31:22;;;;;;;;;;;;;;;;;;10496445;28;19947;-59
2022/07/06 22:36:27;;;;;;;;;;;;;;;;;;10498045;28;19964;-59
2022/07/06 22:41:30;;;;;;;;;;;;;;;;;;10496915;28;19932;-68
2022/07/06 22:46:32;;;;;;;;;;;;;;;;;;10497064;28;19925;-69
2022/07/06 22:51:34;;;;;;;;;;;;;;;;;;10504859;28;20015;-69
2022/07/06 22:56:37;;;;;;;;;;;;;;;;;;10469816;28;19928;-69
2022/07/06 23:01:39;;;;;;;;;;;;;;;;;;10462532;28;19948;-69
2022/07/06 23:06:41;;;;;;;;;;;;;;;;;;10462617;28;20363;-69
2022/07/06 23:11:45;;;;;;;;;;;;;;;;;;10462418;28;19939;-69
2022/07/06 23:16:47;;;;;;;;;;;;;;;;;;10445048;28;19932;-69
2022/07/06 23:21:49;;;;;;;;;;;;;;;;;;10444714;28;19933;-69
2022/07/06 23:26:52;;;;;;;;;;;;;;;;;;10497539;28;19932;-69
2022/07/06 23:31:54;;;;;;;;;;;;;;;;;;10502912;28;20372;-69
2022/07/06 23:36:56;;;;;;;;;;;;;;;;;;10502667;28;19978;-70
2022/07/06 23:41:58;;;;;;;;;;;;;;;;;;10502856;28;19931;-69
2022/07/06 23:47:00;;;;;;;;;;;;;;;;;;10502082;28;19950;-69
2022/07/06 23:52:02;;;;;;;;;;;;;;;;;;10489927;28;20376;-70
2022/07/06 23:57:05;;;;;;;;;;;;;;;;;;10461152;28;19929;-68
